createdAt,value
2022-09-10T00:00:23.212Z,20.41
2022-09-10T00:03:10.135Z,20.50
2022-09-10T00:05:56.155Z,20.49
2022-09-10T00:08:42.152Z,20.54
2022-09-10T00:11:32.246Z,20.46
2022-09-10T00:14:21.086Z,20.55
2022-09-10T00:17:07.567Z,20.45
2022-09-10T00:19:55.122Z,20.55
2022-09-10T00:22:41.609Z,20.46
2022-09-10T00:25:30.690Z,20.50
2022-09-10T00:28:16.544Z,20.52
2022-09-10T00:31:03.647Z,20.43
2022-09-10T00:33:50.482Z,20.48
2022-09-10T00:36:41.803Z,20.50
2022-09-10T00:39:28.059Z,20.48
2022-09-10T00:42:13.777Z,20.44
2022-09-10T00:45:02.316Z,20.50
2022-09-10T00:47:50.427Z,20.52
2022-09-10T00:50:39.509Z,20.48
2022-09-10T00:53:27.543Z,20.54
2022-09-10T00:56:14.377Z,20.52
2022-09-10T00:59:01.363Z,20.56
2022-09-10T01:01:48.004Z,20.58
2022-09-10T01:04:34.242Z,20.47
2022-09-10T01:07:21.486Z,20.56
2022-09-10T01:10:15.146Z,20.52
2022-09-10T01:13:42.826Z,20.49
2022-09-10T01:16:40.425Z,20.57
2022-09-10T01:19:50.208Z,20.56
2022-09-10T01:23:00.362Z,20.53
2022-09-10T01:25:58.575Z,20.45
2022-09-10T01:29:06.253Z,20.53
2022-09-10T01:32:01.683Z,20.55
2022-09-10T01:34:54.358Z,20.50
2022-09-10T01:37:43.244Z,20.48
2022-09-10T01:40:30.100Z,20.53
2022-09-10T01:43:23.329Z,20.45
2022-09-10T01:46:34.956Z,20.53
2022-09-10T01:49:27.860Z,20.55
2022-09-10T01:52:25.323Z,20.47
2022-09-10T01:55:22.483Z,20.55
2022-09-10T01:58:30.405Z,20.41
2022-09-10T02:01:45.798Z,20.39
2022-09-10T02:04:32.230Z,20.54
2022-09-10T02:07:22.439Z,20.49
2022-09-10T02:10:10.518Z,20.60
2022-09-10T02:13:03.984Z,20.56
2022-09-10T02:16:37.836Z,20.53
2022-09-10T02:19:26.542Z,20.60
2022-09-10T02:22:12.616Z,20.50
2022-09-10T02:24:58.756Z,20.52
2022-09-10T02:27:44.901Z,20.61
2022-09-10T02:30:30.984Z,20.61
2022-09-10T02:33:16.976Z,20.54
2022-09-10T02:36:04.189Z,20.58
2022-09-10T02:38:57.041Z,20.63
2022-09-10T02:41:45.580Z,20.65
2022-09-10T02:44:32.118Z,20.56
2022-09-10T02:47:20.363Z,20.61
2022-09-10T02:50:07.913Z,20.71
2022-09-10T02:52:55.539Z,20.70
2022-09-10T02:55:46.262Z,20.68
2022-09-10T02:58:34.227Z,20.63
2022-09-10T03:01:22.998Z,20.71
2022-09-10T03:04:16.918Z,20.74
2022-09-10T03:07:05.042Z,20.74
2022-09-10T03:09:53.401Z,20.71
2022-09-10T03:12:39.403Z,20.69
2022-09-10T03:15:25.698Z,20.72
2022-09-10T03:18:11.503Z,20.63
2022-09-10T03:21:18.338Z,20.66
2022-09-10T03:24:05.331Z,20.73
2022-09-10T03:26:51.662Z,20.73
2022-09-10T03:29:39.933Z,20.71
2022-09-10T03:32:25.685Z,20.68
2022-09-10T03:35:13.748Z,20.72
2022-09-10T03:37:59.590Z,20.69
2022-09-10T03:40:45.438Z,20.66
2022-09-10T03:43:31.554Z,20.62
2022-09-10T03:46:17.992Z,20.71
2022-09-10T03:49:07.095Z,20.74
2022-09-10T03:51:54.734Z,20.75
2022-09-10T03:54:42.941Z,20.72
2022-09-10T03:57:28.833Z,20.71
2022-09-10T04:00:15.077Z,20.77
2022-09-10T04:03:01.698Z,20.74
2022-09-10T04:05:47.560Z,20.73
2022-09-10T04:08:33.788Z,20.74
2022-09-10T04:11:20.417Z,20.67
2022-09-10T04:14:07.893Z,20.79
2022-09-10T04:16:58.982Z,20.76
2022-09-10T04:19:45.941Z,20.79
2022-09-10T04:22:34.558Z,20.77
2022-09-10T04:25:21.238Z,20.79
2022-09-10T04:28:07.814Z,20.78
2022-09-10T04:30:53.576Z,20.80
2022-09-10T04:33:42.660Z,20.82
2022-09-10T04:36:29.362Z,20.82
2022-09-10T04:39:16.728Z,20.77
2022-09-10T04:42:03.278Z,20.85
2022-09-10T04:44:49.829Z,20.84
2022-09-10T04:47:36.500Z,20.86
2022-09-10T04:50:22.910Z,20.88
2022-09-10T04:53:34.451Z,20.89
2022-09-10T04:56:21.362Z,20.81
2022-09-10T04:59:07.980Z,20.80
2022-09-10T05:01:56.154Z,20.88
2022-09-10T05:04:42.467Z,20.87
2022-09-10T05:07:28.370Z,20.94
2022-09-10T05:10:15.379Z,20.93
2022-09-10T05:13:01.786Z,20.95
2022-09-10T05:15:48.206Z,20.95
2022-09-10T05:18:35.227Z,21.00
2022-09-10T05:21:22.671Z,21.02
2022-09-10T05:24:11.164Z,20.97
2022-09-10T05:26:57.135Z,21.03
2022-09-10T05:29:43.384Z,21.06
2022-09-10T05:32:31.423Z,21.08
2022-09-10T05:35:18.019Z,21.06
2022-09-10T05:38:05.677Z,21.14
2022-09-10T05:40:57.117Z,21.10
2022-09-10T05:43:42.820Z,21.14
2022-09-10T05:46:29.777Z,21.14
2022-09-10T05:49:19.812Z,21.20
2022-09-10T05:52:06.368Z,21.21
2022-09-10T05:54:56.173Z,20.99
2022-09-10T05:57:42.295Z,21.14
2022-09-10T06:00:31.973Z,20.89
2022-09-10T06:03:20.399Z,20.94
2022-09-10T06:06:09.576Z,20.95
2022-09-10T06:08:57.234Z,20.99
2022-09-10T06:12:02.220Z,21.12
2022-09-10T06:14:52.724Z,21.15
2022-09-10T06:17:40.224Z,21.11
2022-09-10T06:20:26.296Z,21.16
2022-09-10T06:23:12.176Z,21.25
2022-09-10T06:26:04.265Z,21.34
2022-09-10T06:28:51.565Z,21.52
2022-09-10T06:31:37.641Z,21.53
2022-09-10T06:34:26.497Z,21.66
2022-09-10T06:37:13.308Z,21.67
2022-09-10T06:39:59.252Z,21.75
2022-09-10T06:42:45.338Z,21.82
2022-09-10T06:45:31.369Z,21.75
2022-09-10T06:48:43.296Z,21.91
2022-09-10T06:51:33.645Z,21.88
2022-09-10T06:54:21.464Z,21.99
2022-09-10T06:57:07.413Z,22.07
2022-09-10T06:59:53.932Z,22.05
2022-09-10T07:02:41.017Z,22.14
2022-09-10T07:05:29.471Z,22.22
2022-09-10T07:08:17.598Z,22.28
2022-09-10T07:11:19.723Z,22.31
2022-09-10T07:14:07.026Z,22.26
2022-09-10T07:16:55.511Z,22.41
2022-09-10T07:19:43.831Z,22.41
2022-09-10T07:22:43.869Z,22.45
2022-09-10T07:25:34.109Z,22.54
2022-09-10T07:28:23.600Z,22.58
2022-09-10T07:31:15.030Z,22.63
2022-09-10T07:34:03.317Z,22.71
2022-09-10T07:36:49.576Z,22.81
2022-09-10T07:39:38.053Z,22.85
2022-09-10T07:42:25.517Z,22.79
2022-09-10T07:45:16.265Z,22.88
2022-09-10T07:48:03.477Z,22.90
2022-09-10T07:50:53.615Z,22.92
2022-09-10T07:53:47.550Z,22.96
2022-09-10T07:56:37.909Z,22.93
2022-09-10T07:59:26.819Z,23.02
2022-09-10T08:02:17.255Z,23.02
2022-09-10T08:05:11.874Z,23.07
2022-09-10T08:07:58.632Z,23.09
2022-09-10T08:10:46.956Z,23.09
2022-09-10T08:13:36.603Z,23.15
2022-09-10T08:16:24.398Z,23.20
2022-09-10T08:19:14.947Z,23.09
2022-09-10T08:22:00.881Z,23.23
2022-09-10T08:24:51.849Z,23.32
2022-09-10T08:27:38.626Z,23.40
2022-09-10T08:30:28.850Z,23.45
2022-09-10T08:33:15.476Z,23.49
2022-09-10T08:36:02.759Z,23.50
2022-09-10T08:38:50.396Z,23.64
2022-09-10T08:41:52.674Z,23.70
2022-09-10T08:44:51.031Z,23.85
2022-09-10T08:47:43.935Z,23.86
2022-09-10T08:50:40.343Z,23.95
2022-09-10T08:53:43.817Z,24.08
2022-09-10T08:56:33.077Z,24.11
2022-09-10T08:59:26.721Z,24.26
2022-09-10T09:02:47.860Z,24.17
2022-09-10T09:05:45.577Z,24.35
2022-09-10T09:08:35.059Z,24.41
2022-09-10T09:11:45.755Z,24.51
2022-09-10T09:14:36.082Z,24.61
2022-09-10T09:17:51.740Z,24.57
2022-09-10T09:20:47.213Z,24.74
2022-09-10T09:24:13.064Z,24.74
2022-09-10T09:27:10.435Z,24.86
2022-09-10T09:30:06.333Z,24.92
2022-09-10T09:33:02.077Z,25.08
2022-09-10T09:35:59.579Z,25.13
2022-09-10T09:38:49.173Z,25.26
2022-09-10T09:41:47.528Z,25.19
2022-09-10T09:44:43.869Z,25.32
2022-09-10T09:47:30.366Z,25.34
2022-09-10T09:50:18.575Z,25.45
2022-09-10T09:53:05.011Z,25.52
2022-09-10T09:55:57.556Z,25.62
2022-09-10T09:58:46.253Z,25.50
2022-09-10T10:01:33.379Z,25.73
2022-09-10T10:04:22.681Z,25.73
2022-09-10T10:07:08.561Z,25.88
2022-09-10T10:09:54.423Z,25.94
2022-09-10T10:12:49.037Z,26.02
2022-09-10T10:15:38.887Z,26.19
2022-09-10T10:18:31.833Z,26.23
2022-09-10T10:21:20.485Z,26.31
2022-09-10T10:24:30.543Z,26.41
2022-09-10T10:27:19.300Z,26.51
2022-09-10T10:30:11.653Z,26.57
2022-09-10T10:33:03.289Z,26.62
2022-09-10T10:35:54.842Z,26.66
2022-09-10T10:38:44.595Z,26.65
2022-09-10T10:41:46.888Z,26.68
2022-09-10T10:44:41.833Z,26.67
2022-09-10T10:47:52.689Z,26.64
2022-09-10T10:50:42.851Z,26.62
2022-09-10T10:53:37.995Z,26.58
2022-09-10T10:56:43.151Z,26.56
2022-09-10T10:59:40.197Z,26.53
2022-09-10T11:02:36.162Z,26.60
2022-09-10T11:05:31.800Z,26.58
2022-09-10T11:08:27.504Z,26.72
2022-09-10T11:11:49.036Z,26.68
2022-09-10T11:14:44.670Z,26.76
2022-09-10T11:17:38.606Z,26.78
2022-09-10T11:21:00.349Z,26.91
2022-09-10T11:23:56.961Z,27.03
2022-09-10T11:27:19.034Z,26.83
2022-09-10T11:30:16.507Z,27.10
2022-09-10T11:33:15.069Z,27.01
2022-09-10T11:36:25.357Z,27.07
2022-09-10T11:39:19.396Z,27.08
2022-09-10T11:42:23.656Z,27.16
2022-09-10T11:45:43.090Z,27.10
2022-09-10T11:48:50.186Z,27.08
2022-09-10T11:51:37.323Z,27.12
2022-09-10T11:54:29.799Z,27.10
2022-09-10T11:57:36.005Z,27.15
2022-09-10T12:00:24.139Z,27.16
2022-09-10T12:03:28.914Z,27.10
2022-09-10T12:06:23.566Z,27.26
2022-09-10T12:09:44.840Z,27.33
2022-09-10T12:12:37.820Z,27.39
2022-09-10T12:15:34.017Z,27.43
2022-09-10T12:18:23.617Z,27.54
2022-09-10T12:21:25.396Z,27.56
2022-09-10T12:24:33.725Z,27.58
2022-09-10T12:27:20.256Z,27.84
2022-09-10T12:30:25.074Z,27.64
2022-09-10T12:33:17.157Z,27.76
2022-09-10T12:36:03.729Z,27.87
2022-09-10T12:39:21.700Z,27.73
2022-09-10T12:42:27.469Z,27.76
2022-09-10T12:45:13.505Z,27.92
2022-09-10T12:47:59.477Z,27.90
2022-09-10T12:50:52.975Z,27.94
2022-09-10T12:54:00.513Z,27.94
2022-09-10T12:57:24.568Z,28.11
2022-09-10T13:00:23.400Z,28.18
2022-09-10T13:03:17.749Z,28.22
2022-09-10T13:06:05.363Z,28.45
2022-09-10T13:08:51.535Z,28.57
2022-09-10T13:11:37.572Z,28.65
2022-09-10T13:14:27.706Z,28.58
2022-09-10T13:17:59.743Z,28.65
2022-09-10T13:20:45.722Z,28.93
2022-09-10T13:23:48.065Z,28.93
2022-09-10T13:26:47.296Z,29.11
2022-09-10T13:29:36.542Z,29.12
2022-09-10T13:32:30.104Z,29.13
2022-09-10T13:35:21.952Z,29.43
2022-09-10T13:38:14.307Z,29.44
2022-09-10T13:41:19.651Z,29.45
2022-09-10T13:44:17.856Z,29.77
2022-09-10T13:47:10.329Z,29.93
2022-09-10T13:49:56.856Z,29.95
2022-09-10T13:52:45.373Z,30.47
2022-09-10T13:55:32.134Z,30.66
2022-09-10T13:58:21.596Z,31.00
2022-09-10T14:01:07.500Z,31.33
2022-09-10T14:03:53.448Z,31.58
2022-09-10T14:06:39.600Z,31.91
2022-09-10T14:09:26.536Z,32.26
2022-09-10T14:12:13.925Z,32.69
2022-09-10T14:15:03.973Z,32.71
2022-09-10T14:17:54.392Z,33.17
2022-09-10T14:20:40.704Z,33.49
2022-09-10T14:23:27.028Z,33.87
2022-09-10T14:26:17.377Z,34.24
2022-09-10T14:29:23.233Z,34.66
2022-09-10T14:32:26.497Z,35.12
2022-09-10T14:35:34.657Z,35.25
2022-09-10T14:38:24.599Z,35.65
2022-09-10T14:41:19.879Z,35.91
2022-09-10T14:44:24.118Z,36.01
2022-09-10T14:47:10.752Z,36.13
2022-09-10T14:50:31.064Z,36.20
2022-09-10T14:53:17.394Z,36.38
2022-09-10T14:56:05.377Z,36.49
2022-09-10T14:59:06.488Z,36.37
2022-09-10T15:01:53.708Z,36.33
2022-09-10T15:04:39.838Z,36.38
2022-09-10T15:07:27.866Z,36.52
2022-09-10T15:10:14.553Z,36.85
2022-09-10T15:13:00.715Z,36.91
2022-09-10T15:15:46.703Z,36.88
2022-09-10T15:18:32.608Z,36.89
2022-09-10T15:21:18.683Z,36.98
2022-09-10T15:24:06.000Z,36.95
2022-09-10T15:26:52.575Z,36.82
2022-09-10T15:29:39.262Z,36.52
2022-09-10T15:32:25.377Z,36.07
2022-09-10T15:35:11.544Z,35.47
2022-09-10T15:37:58.031Z,34.85
2022-09-10T15:40:44.547Z,34.37
2022-09-10T15:43:34.218Z,34.32
2022-09-10T15:46:24.277Z,34.11
2022-09-10T15:49:10.368Z,34.03
2022-09-10T15:51:57.309Z,34.00
2022-09-10T15:54:43.880Z,33.94
2022-09-10T15:57:31.096Z,33.69
2022-09-10T16:00:18.486Z,33.54
2022-09-10T16:03:04.649Z,33.25
2022-09-10T16:05:50.719Z,33.00
2022-09-10T16:08:36.828Z,32.66
2022-09-10T16:11:24.793Z,32.43
2022-09-10T16:14:17.060Z,32.19
2022-09-10T16:17:13.787Z,31.91
2022-09-10T16:20:02.193Z,31.62
2022-09-10T16:22:48.455Z,31.42
2022-09-10T16:25:34.302Z,31.12
2022-09-10T16:28:21.025Z,30.92
2022-09-10T16:31:16.483Z,30.73
2022-09-10T16:34:05.053Z,30.25
2022-09-10T16:36:51.446Z,29.93
2022-09-10T16:39:37.290Z,29.68
2022-09-10T16:42:23.274Z,29.47
2022-09-10T16:45:09.436Z,28.85
2022-09-10T16:47:55.425Z,28.74
2022-09-10T16:50:41.547Z,28.54
2022-09-10T16:53:27.446Z,28.36
2022-09-10T16:56:15.495Z,28.22
2022-09-10T16:59:02.045Z,27.73
2022-09-10T17:01:49.459Z,27.67
2022-09-10T17:04:35.919Z,27.38
2022-09-10T17:07:22.120Z,27.34
2022-09-10T17:10:08.454Z,27.18
2022-09-10T17:12:54.409Z,26.98
2022-09-10T17:15:40.749Z,26.98
2022-09-10T17:18:26.733Z,26.84
2022-09-10T17:21:13.365Z,26.73
2022-09-10T17:23:59.990Z,26.57
2022-09-10T17:26:46.133Z,26.51
2022-09-10T17:29:32.952Z,26.45
2022-09-10T17:32:19.252Z,26.31
2022-09-10T17:35:05.860Z,26.22
2022-09-10T17:37:52.143Z,26.13
2022-09-10T17:40:38.498Z,25.99
2022-09-10T17:43:29.415Z,26.01
2022-09-10T17:46:22.518Z,25.92
2022-09-10T17:49:09.500Z,25.82
2022-09-10T17:51:55.931Z,25.86
2022-09-10T17:54:42.310Z,25.75
2022-09-10T17:57:28.812Z,25.62
2022-09-10T18:00:15.097Z,25.63
2022-09-10T18:03:01.350Z,25.43
2022-09-10T18:05:48.655Z,25.41
2022-09-10T18:08:36.037Z,25.45
2022-09-10T18:11:24.382Z,25.42
2022-09-10T18:14:18.588Z,25.19
2022-09-10T18:17:04.724Z,25.18
2022-09-10T18:19:50.986Z,25.18
2022-09-10T18:22:38.227Z,25.22
2022-09-10T18:25:27.068Z,25.15
2022-09-10T18:28:13.172Z,25.18
2022-09-10T18:31:03.073Z,25.12
2022-09-10T18:33:49.095Z,25.03
2022-09-10T18:36:35.569Z,25.04
2022-09-10T18:39:22.986Z,25.00
2022-09-10T18:42:09.440Z,25.02
2022-09-10T18:44:55.488Z,25.01
2022-09-10T18:47:45.026Z,24.96
2022-09-10T18:50:32.680Z,25.00
2022-09-10T18:53:18.715Z,24.95
2022-09-10T18:56:10.000Z,24.97
2022-09-10T18:59:00.503Z,24.96
2022-09-10T19:01:47.303Z,24.87
2022-09-10T19:04:44.899Z,24.87
2022-09-10T19:07:39.536Z,24.70
2022-09-10T19:10:25.726Z,24.56
2022-09-10T19:13:12.358Z,24.77
2022-09-10T19:16:00.948Z,24.63
2022-09-10T19:18:51.748Z,24.69
2022-09-10T19:21:38.407Z,24.68
2022-09-10T19:24:37.671Z,24.68
2022-09-10T19:27:24.636Z,24.63
2022-09-10T19:30:11.316Z,24.60
2022-09-10T19:32:57.503Z,24.56
2022-09-10T19:35:44.277Z,24.52
2022-09-10T19:38:46.696Z,24.53
2022-09-10T19:41:34.261Z,24.36
2022-09-10T19:44:20.221Z,24.39
2022-09-10T19:47:06.470Z,24.43
2022-09-10T19:49:53.027Z,24.38
2022-09-10T19:52:39.062Z,24.32
2022-09-10T19:55:27.055Z,24.32
2022-09-10T19:58:13.579Z,24.31
2022-09-10T20:00:59.702Z,24.25
2022-09-10T20:03:46.077Z,24.27
2022-09-10T20:06:33.283Z,24.23
2022-09-10T20:09:19.325Z,24.19
2022-09-10T20:12:05.838Z,24.10
2022-09-10T20:14:52.484Z,24.09
2022-09-10T20:17:39.071Z,24.05
2022-09-10T20:20:25.041Z,24.03
2022-09-10T20:23:11.009Z,23.96
2022-09-10T20:25:56.899Z,23.82
2022-09-10T20:28:53.355Z,23.86
2022-09-10T20:31:47.797Z,23.46
2022-09-10T20:34:35.302Z,23.69
2022-09-10T20:37:22.257Z,23.62
2022-09-10T20:40:08.818Z,23.56
2022-09-10T20:42:54.925Z,23.49
2022-09-10T20:45:44.042Z,23.43
2022-09-10T20:48:31.199Z,23.40
2022-09-10T20:51:21.360Z,23.21
2022-09-10T20:54:09.959Z,23.19
2022-09-10T20:56:56.613Z,23.23
2022-09-10T20:59:44.141Z,23.07
2022-09-10T21:02:30.166Z,23.07
2022-09-10T21:05:15.975Z,23.02
2022-09-10T21:08:02.749Z,22.96
2022-09-10T21:10:49.121Z,22.82
2022-09-10T21:13:36.446Z,22.86
2022-09-10T21:16:24.568Z,22.72
2022-09-10T21:19:16.113Z,22.57
2022-09-10T21:22:02.894Z,22.52
2022-09-10T21:24:48.788Z,22.46
2022-09-10T21:27:34.903Z,22.43
2022-09-10T21:30:20.866Z,22.42
2022-09-10T21:33:07.199Z,22.30
2022-09-10T21:36:02.676Z,22.29
2022-09-10T21:38:54.685Z,22.19
2022-09-10T21:41:44.044Z,21.97
2022-09-10T21:44:32.244Z,22.07
2022-09-10T21:47:18.203Z,22.00
2022-09-10T21:50:04.292Z,22.06
2022-09-10T21:52:50.376Z,21.98
2022-09-10T21:55:36.223Z,21.97
2022-09-10T21:58:22.059Z,21.83
2022-09-10T22:01:19.680Z,21.74
2022-09-10T22:04:05.673Z,21.83
2022-09-10T22:06:53.982Z,21.82
2022-09-10T22:09:40.092Z,21.69
2022-09-10T22:12:25.997Z,21.59
2022-09-10T22:15:12.272Z,21.70
2022-09-10T22:17:58.040Z,21.64
2022-09-10T22:20:43.973Z,21.58
2022-09-10T22:23:32.387Z,21.58
2022-09-10T22:26:20.641Z,21.54
2022-09-10T22:29:06.475Z,21.52
2022-09-10T22:31:52.384Z,21.45
2022-09-10T22:34:39.030Z,21.45
2022-09-10T22:37:25.203Z,21.39
2022-09-10T22:40:11.591Z,21.40
2022-09-10T22:42:58.850Z,21.31
2022-09-10T22:45:44.616Z,21.32
2022-09-10T22:48:30.750Z,21.30
2022-09-10T22:51:29.171Z,21.27
2022-09-10T22:54:17.999Z,21.28
2022-09-10T22:57:06.292Z,21.28
2022-09-10T22:59:53.737Z,21.21
2022-09-10T23:02:41.516Z,21.23
2022-09-10T23:05:28.881Z,21.19
2022-09-10T23:08:22.241Z,21.23
2022-09-10T23:11:36.362Z,21.20
2022-09-10T23:14:27.258Z,21.20
2022-09-10T23:17:20.715Z,21.18
2022-09-10T23:20:10.581Z,21.16
2022-09-10T23:23:01.227Z,21.09
2022-09-10T23:25:49.503Z,21.01
2022-09-10T23:28:38.133Z,21.07
2022-09-10T23:31:30.470Z,21.03
2022-09-10T23:34:20.033Z,21.02
2022-09-10T23:37:10.432Z,20.85
2022-09-10T23:39:57.321Z,20.73
2022-09-10T23:42:48.514Z,20.88
2022-09-10T23:45:35.634Z,20.77
2022-09-10T23:48:24.979Z,20.86
2022-09-10T23:51:20.171Z,20.76
2022-09-10T23:54:09.430Z,20.68
2022-09-10T23:56:57.956Z,20.72
2022-09-10T23:59:49.240Z,20.62
